sensor_id;sensor_type;location;lat;lon;timestamp;temperature;humidity
17178;DHT22;8704;52.006;4.374;2023-04-03T00:01:12;4.60;99.90
17178;DHT22;8704;52.006;4.374;2023-04-03T00:03:40;4.50;99.90
17178;DHT22;8704;52.006;4.374;2023-04-03T00:06:09;4.50;99.90
17178;DHT22;8704;52.006;4.374;2023-04-03T00:08:39;4.40;99.90
17178;DHT22;8704;52.006;4.374;2023-04-03T00:11:08;4.40;99.90
17178;DHT22;8704;52.006;4.374;2023-04-03T00:13:37;4.80;99.90
17178;DHT22;8704;52.006;4.374;2023-04-03T00:16:07;4.50;99.90
17178;DHT22;8704;52.006;4.374;2023-04-03T00:18:36;5.10;99.90
17178;DHT22;8704;52.006;4.374;2023-04-03T00:21:05;4.30;99.90
17178;DHT22;8704;52.006;4.374;2023-04-03T00:23:34;4.90;99.90
17178;DHT22;8704;52.006;4.374;2023-04-03T00:26:02;4.20;99.90
17178;DHT22;8704;52.006;4.374;2023-04-03T00:28:30;4.20;99.90
17178;DHT22;8704;52.006;4.374;2023-04-03T00:30:58;4.20;99.90
17178;DHT22;8704;52.006;4.374;2023-04-03T00:33:27;4.10;99.90
17178;DHT22;8704;52.006;4.374;2023-04-03T00:35:56;4.10;99.90
17178;DHT22;8704;52.006;4.374;2023-04-03T00:38:24;5.00;99.90
17178;DHT22;8704;52.006;4.374;2023-04-03T00:40:52;4.10;99.90
17178;DHT22;8704;52.006;4.374;2023-04-03T00:43:23;4.00;99.90
17178;DHT22;8704;52.006;4.374;2023-04-03T00:45:52;3.90;99.90
17178;DHT22;8704;52.006;4.374;2023-04-03T00:48:23;4.00;99.90
17178;DHT22;8704;52.006;4.374;2023-04-03T00:50:55;3.90;99.90
17178;DHT22;8704;52.006;4.374;2023-04-03T00:53:25;4.80;99.90
17178;DHT22;8704;52.006;4.374;2023-04-03T00:55:55;3.80;99.90
17178;DHT22;8704;52.006;4.374;2023-04-03T00:58:30;3.80;99.90
17178;DHT22;8704;52.006;4.374;2023-04-03T01:01:05;3.70;99.90
17178;DHT22;8704;52.006;4.374;2023-04-03T01:03:35;3.70;99.90
17178;DHT22;8704;52.006;4.374;2023-04-03T01:06:04;3.70;99.90
17178;DHT22;8704;52.006;4.374;2023-04-03T01:08:33;3.60;99.90
17178;DHT22;8704;52.006;4.374;2023-04-03T01:11:02;3.60;99.90
17178;DHT22;8704;52.006;4.374;2023-04-03T01:13:31;3.60;99.90
17178;DHT22;8704;52.006;4.374;2023-04-03T01:16:01;3.60;99.90
17178;DHT22;8704;52.006;4.374;2023-04-03T01:18:30;3.60;99.90
17178;DHT22;8704;52.006;4.374;2023-04-03T01:26:52;3.60;99.90
17178;DHT22;8704;52.006;4.374;2023-04-03T01:29:20;3.50;99.90
17178;DHT22;8704;52.006;4.374;2023-04-03T01:31:52;3.50;99.90
17178;DHT22;8704;52.006;4.374;2023-04-03T01:34:20;3.50;99.90
17178;DHT22;8704;52.006;4.374;2023-04-03T01:36:49;3.50;99.90
17178;DHT22;8704;52.006;4.374;2023-04-03T01:39:17;3.40;99.90
17178;DHT22;8704;52.006;4.374;2023-04-03T01:41:45;3.40;99.90
17178;DHT22;8704;52.006;4.374;2023-04-03T01:44:13;3.70;99.90
17178;DHT22;8704;52.006;4.374;2023-04-03T01:46:42;3.40;99.90
17178;DHT22;8704;52.006;4.374;2023-04-03T01:49:11;3.30;99.90
17178;DHT22;8704;52.006;4.374;2023-04-03T01:51:39;3.40;99.90
17178;DHT22;8704;52.006;4.374;2023-04-03T01:54:07;3.30;99.90
17178;DHT22;8704;52.006;4.374;2023-04-03T01:56:35;3.30;99.90
17178;DHT22;8704;52.006;4.374;2023-04-03T01:59:04;3.80;99.90
17178;DHT22;8704;52.006;4.374;2023-04-03T02:01:33;3.20;99.90
17178;DHT22;8704;52.006;4.374;2023-04-03T02:04:01;3.20;99.90
17178;DHT22;8704;52.006;4.374;2023-04-03T02:06:30;4.30;99.90
17178;DHT22;8704;52.006;4.374;2023-04-03T02:08:58;3.10;99.90
17178;DHT22;8704;52.006;4.374;2023-04-03T02:11:26;3.10;99.90
17178;DHT22;8704;52.006;4.374;2023-04-03T02:13:54;3.10;99.90
17178;DHT22;8704;52.006;4.374;2023-04-03T02:16:22;3.10;99.90
17178;DHT22;8704;52.006;4.374;2023-04-03T02:18:50;3.00;99.90
17178;DHT22;8704;52.006;4.374;2023-04-03T02:21:18;3.00;99.90
17178;DHT22;8704;52.006;4.374;2023-04-03T02:23:48;3.00;99.90
17178;DHT22;8704;52.006;4.374;2023-04-03T02:26:17;3.00;99.90
17178;DHT22;8704;52.006;4.374;2023-04-03T02:28:45;3.00;99.90
17178;DHT22;8704;52.006;4.374;2023-04-03T02:31:13;2.90;99.90
17178;DHT22;8704;52.006;4.374;2023-04-03T02:33:41;3.00;99.90
17178;DHT22;8704;52.006;4.374;2023-04-03T02:36:09;3.00;99.90
17178;DHT22;8704;52.006;4.374;2023-04-03T02:38:37;2.90;99.90
17178;DHT22;8704;52.006;4.374;2023-04-03T02:41:08;2.90;99.90
17178;DHT22;8704;52.006;4.374;2023-04-03T02:43:37;2.80;99.90
17178;DHT22;8704;52.006;4.374;2023-04-03T02:46:06;2.80;99.90
17178;DHT22;8704;52.006;4.374;2023-04-03T02:48:34;2.80;99.90
17178;DHT22;8704;52.006;4.374;2023-04-03T02:51:03;2.80;99.90
17178;DHT22;8704;52.006;4.374;2023-04-03T02:53:31;2.80;99.90
17178;DHT22;8704;52.006;4.374;2023-04-03T02:55:59;2.80;99.90
17178;DHT22;8704;52.006;4.374;2023-04-03T02:58:28;2.80;99.90
17178;DHT22;8704;52.006;4.374;2023-04-03T03:00:56;2.80;99.90
17178;DHT22;8704;52.006;4.374;2023-04-03T03:03:24;2.80;99.90
17178;DHT22;8704;52.006;4.374;2023-04-03T03:06:01;2.70;99.90
17178;DHT22;8704;52.006;4.374;2023-04-03T03:08:29;2.70;99.90
17178;DHT22;8704;52.006;4.374;2023-04-03T03:10:57;2.60;99.90
17178;DHT22;8704;52.006;4.374;2023-04-03T03:13:25;2.60;99.90
17178;DHT22;8704;52.006;4.374;2023-04-03T03:15:55;2.60;99.90
17178;DHT22;8704;52.006;4.374;2023-04-03T03:18:23;2.60;99.90
17178;DHT22;8704;52.006;4.374;2023-04-03T03:20:52;2.60;99.90
17178;DHT22;8704;52.006;4.374;2023-04-03T03:23:21;2.60;99.90
17178;DHT22;8704;52.006;4.374;2023-04-03T03:25:54;2.50;99.90
17178;DHT22;8704;52.006;4.374;2023-04-03T03:28:23;2.50;99.90
17178;DHT22;8704;52.006;4.374;2023-04-03T03:30:51;2.50;99.90
17178;DHT22;8704;52.006;4.374;2023-04-03T03:33:20;2.50;99.90
17178;DHT22;8704;52.006;4.374;2023-04-03T03:35:48;2.40;99.90
17178;DHT22;8704;52.006;4.374;2023-04-03T03:38:17;3.00;99.90
17178;DHT22;8704;52.006;4.374;2023-04-03T03:40:47;2.40;99.90
17178;DHT22;8704;52.006;4.374;2023-04-03T03:43:15;2.40;99.90
17178;DHT22;8704;52.006;4.374;2023-04-03T03:45:43;3.30;99.90
17178;DHT22;8704;52.006;4.374;2023-04-03T03:48:12;3.20;99.90
17178;DHT22;8704;52.006;4.374;2023-04-03T03:50:41;2.30;99.90
17178;DHT22;8704;52.006;4.374;2023-04-03T03:53:09;2.30;99.90
17178;DHT22;8704;52.006;4.374;2023-04-03T03:55:37;2.40;99.90
17178;DHT22;8704;52.006;4.374;2023-04-03T03:58:05;2.30;99.90
17178;DHT22;8704;52.006;4.374;2023-04-03T04:00:33;2.90;99.90
17178;DHT22;8704;52.006;4.374;2023-04-03T04:03:01;2.30;99.90
17178;DHT22;8704;52.006;4.374;2023-04-03T04:05:30;2.20;99.90
17178;DHT22;8704;52.006;4.374;2023-04-03T04:07:59;2.20;99.90
17178;DHT22;8704;52.006;4.374;2023-04-03T04:10:27;2.60;99.90
17178;DHT22;8704;52.006;4.374;2023-04-03T04:12:55;3.20;99.90
17178;DHT22;8704;52.006;4.374;2023-04-03T04:15:24;2.80;99.90
17178;DHT22;8704;52.006;4.374;2023-04-03T04:17:53;2.10;99.90
17178;DHT22;8704;52.006;4.374;2023-04-03T04:20:22;2.10;99.90
17178;DHT22;8704;52.006;4.374;2023-04-03T04:22:50;2.10;99.90
17178;DHT22;8704;52.006;4.374;2023-04-03T04:25:19;2.00;99.90
17178;DHT22;8704;52.006;4.374;2023-04-03T04:27:47;2.00;99.90
17178;DHT22;8704;52.006;4.374;2023-04-03T04:30:16;2.00;99.90
17178;DHT22;8704;52.006;4.374;2023-04-03T04:32:44;3.00;99.90
17178;DHT22;8704;52.006;4.374;2023-04-03T04:35:12;2.40;99.90
17178;DHT22;8704;52.006;4.374;2023-04-03T04:37:42;2.00;99.90
17178;DHT22;8704;52.006;4.374;2023-04-03T04:40:11;1.90;99.90
17178;DHT22;8704;52.006;4.374;2023-04-03T04:42:40;2.00;99.90
17178;DHT22;8704;52.006;4.374;2023-04-03T04:45:09;2.90;99.90
17178;DHT22;8704;52.006;4.374;2023-04-03T04:47:37;1.90;99.90
17178;DHT22;8704;52.006;4.374;2023-04-03T04:50:06;2.40;99.90
17178;DHT22;8704;52.006;4.374;2023-04-03T04:52:34;1.80;99.90
17178;DHT22;8704;52.006;4.374;2023-04-03T04:55:02;1.80;99.90
17178;DHT22;8704;52.006;4.374;2023-04-03T04:57:31;1.80;99.90
17178;DHT22;8704;52.006;4.374;2023-04-03T05:00:00;3.20;99.90
17178;DHT22;8704;52.006;4.374;2023-04-03T05:02:28;1.70;99.90
17178;DHT22;8704;52.006;4.374;2023-04-03T05:04:56;2.80;99.90
17178;DHT22;8704;52.006;4.374;2023-04-03T05:07:25;1.70;99.90
17178;DHT22;8704;52.006;4.374;2023-04-03T05:09:53;2.80;99.90
17178;DHT22;8704;52.006;4.374;2023-04-03T05:12:20;2.40;99.90
17178;DHT22;8704;52.006;4.374;2023-04-03T05:14:49;1.70;99.90
17178;DHT22;8704;52.006;4.374;2023-04-03T05:17:18;1.60;99.90
17178;DHT22;8704;52.006;4.374;2023-04-03T05:19:46;1.60;99.90
17178;DHT22;8704;52.006;4.374;2023-04-03T05:22:14;1.60;99.90
17178;DHT22;8704;52.006;4.374;2023-04-03T05:24:42;1.60;99.90
17178;DHT22;8704;52.006;4.374;2023-04-03T05:27:11;1.60;99.90
17178;DHT22;8704;52.006;4.374;2023-04-03T05:29:39;1.60;99.90
17178;DHT22;8704;52.006;4.374;2023-04-03T05:32:11;1.60;99.90
17178;DHT22;8704;52.006;4.374;2023-04-03T05:34:40;1.50;99.90
17178;DHT22;8704;52.006;4.374;2023-04-03T05:37:08;1.50;99.90
17178;DHT22;8704;52.006;4.374;2023-04-03T05:39:36;1.50;1.00
17178;DHT22;8704;52.006;4.374;2023-04-03T05:42:07;1.50;1.00
17178;DHT22;8704;52.006;4.374;2023-04-03T05:44:35;1.50;1.00
17178;DHT22;8704;52.006;4.374;2023-04-03T05:47:03;1.50;1.00
17178;DHT22;8704;52.006;4.374;2023-04-03T05:49:31;1.50;1.00
17178;DHT22;8704;52.006;4.374;2023-04-03T05:52:00;1.60;1.00
17178;DHT22;8704;52.006;4.374;2023-04-03T05:54:29;1.50;1.00
17178;DHT22;8704;52.006;4.374;2023-04-03T05:56:58;1.50;1.00
17178;DHT22;8704;52.006;4.374;2023-04-03T05:59:26;1.60;1.00
17178;DHT22;8704;52.006;4.374;2023-04-03T06:01:54;1.60;1.00
17178;DHT22;8704;52.006;4.374;2023-04-03T06:04:22;1.60;1.00
17178;DHT22;8704;52.006;4.374;2023-04-03T06:06:52;1.60;1.00
17178;DHT22;8704;52.006;4.374;2023-04-03T06:09:24;1.60;1.00
17178;DHT22;8704;52.006;4.374;2023-04-03T06:11:53;1.60;1.00
17178;DHT22;8704;52.006;4.374;2023-04-03T06:14:21;1.70;1.00
17178;DHT22;8704;52.006;4.374;2023-04-03T06:16:49;1.70;1.00
17178;DHT22;8704;52.006;4.374;2023-04-03T06:19:17;1.70;1.00
17178;DHT22;8704;52.006;4.374;2023-04-03T06:21:46;1.70;1.00
17178;DHT22;8704;52.006;4.374;2023-04-03T06:24:16;1.70;1.00
17178;DHT22;8704;52.006;4.374;2023-04-03T06:26:45;1.80;1.00
17178;DHT22;8704;52.006;4.374;2023-04-03T06:29:13;2.00;1.00
17178;DHT22;8704;52.006;4.374;2023-04-03T06:31:42;1.80;1.00
17178;DHT22;8704;52.006;4.374;2023-04-03T06:34:10;1.90;1.00
17178;DHT22;8704;52.006;4.374;2023-04-03T06:36:39;1.90;1.00
17178;DHT22;8704;52.006;4.374;2023-04-03T06:39:08;2.00;1.00
17178;DHT22;8704;52.006;4.374;2023-04-03T06:41:37;2.00;1.00
17178;DHT22;8704;52.006;4.374;2023-04-03T06:44:06;2.10;1.00
17178;DHT22;8704;52.006;4.374;2023-04-03T06:46:38;2.20;1.00
17178;DHT22;8704;52.006;4.374;2023-04-03T06:49:06;2.20;1.00
17178;DHT22;8704;52.006;4.374;2023-04-03T06:51:36;3.00;1.00
17178;DHT22;8704;52.006;4.374;2023-04-03T06:54:05;2.30;1.00
17178;DHT22;8704;52.006;4.374;2023-04-03T06:56:35;2.30;1.00
17178;DHT22;8704;52.006;4.374;2023-04-03T06:59:03;2.40;1.00
17178;DHT22;8704;52.006;4.374;2023-04-03T07:01:33;2.50;1.00
17178;DHT22;8704;52.006;4.374;2023-04-03T07:04:01;2.50;1.00
17178;DHT22;8704;52.006;4.374;2023-04-03T07:06:29;2.50;1.00
17178;DHT22;8704;52.006;4.374;2023-04-03T07:08:58;2.60;1.00
17178;DHT22;8704;52.006;4.374;2023-04-03T07:11:26;2.70;1.00
17178;DHT22;8704;52.006;4.374;2023-04-03T07:13:54;2.80;1.00
17178;DHT22;8704;52.006;4.374;2023-04-03T07:16:23;3.50;99.90
17178;DHT22;8704;52.006;4.374;2023-04-03T07:18:52;2.90;99.90
17178;DHT22;8704;52.006;4.374;2023-04-03T07:21:20;3.00;99.90
17178;DHT22;8704;52.006;4.374;2023-04-03T07:23:48;3.30;99.90
17178;DHT22;8704;52.006;4.374;2023-04-03T07:26:16;3.60;99.90
17178;DHT22;8704;52.006;4.374;2023-04-03T07:28:44;3.80;99.90
17178;DHT22;8704;52.006;4.374;2023-04-03T07:31:16;4.30;99.90
17178;DHT22;8704;52.006;4.374;2023-04-03T07:33:45;4.20;99.90
17178;DHT22;8704;52.006;4.374;2023-04-03T07:36:18;3.50;99.90
17178;DHT22;8704;52.006;4.374;2023-04-03T07:38:47;4.20;99.90
17178;DHT22;8704;52.006;4.374;2023-04-03T07:41:16;4.80;99.90
17178;DHT22;8704;52.006;4.374;2023-04-03T07:43:45;4.10;99.90
17178;DHT22;8704;52.006;4.374;2023-04-03T07:46:13;4.70;99.90
17178;DHT22;8704;52.006;4.374;2023-04-03T07:48:41;3.90;99.90
17178;DHT22;8704;52.006;4.374;2023-04-03T07:51:09;4.00;99.90
17178;DHT22;8704;52.006;4.374;2023-04-03T07:53:39;4.10;99.90
17178;DHT22;8704;52.006;4.374;2023-04-03T07:56:08;4.10;99.90
17178;DHT22;8704;52.006;4.374;2023-04-03T07:58:36;4.20;99.90
17178;DHT22;8704;52.006;4.374;2023-04-03T08:01:04;4.30;99.90
17178;DHT22;8704;52.006;4.374;2023-04-03T08:03:33;4.30;99.90
17178;DHT22;8704;52.006;4.374;2023-04-03T08:06:03;4.40;99.90
17178;DHT22;8704;52.006;4.374;2023-04-03T08:08:33;4.40;99.90
17178;DHT22;8704;52.006;4.374;2023-04-03T08:11:03;4.40;99.90
17178;DHT22;8704;52.006;4.374;2023-04-03T08:13:32;4.50;99.90
17178;DHT22;8704;52.006;4.374;2023-04-03T08:16:12;4.50;99.90
17178;DHT22;8704;52.006;4.374;2023-04-03T08:18:40;4.70;99.90
17178;DHT22;8704;52.006;4.374;2023-04-03T08:21:10;4.80;99.90
17178;DHT22;8704;52.006;4.374;2023-04-03T08:23:39;4.90;99.90
17178;DHT22;8704;52.006;4.374;2023-04-03T08:26:12;5.50;99.90
17178;DHT22;8704;52.006;4.374;2023-04-03T08:28:40;5.00;99.90
17178;DHT22;8704;52.006;4.374;2023-04-03T08:31:10;5.00;99.90
17178;DHT22;8704;52.006;4.374;2023-04-03T08:33:38;5.10;99.90
17178;DHT22;8704;52.006;4.374;2023-04-03T08:36:15;5.20;99.90
17178;DHT22;8704;52.006;4.374;2023-04-03T08:38:43;5.30;94.20
17178;DHT22;8704;52.006;4.374;2023-04-03T08:41:15;5.60;99.90
17178;DHT22;8704;52.006;4.374;2023-04-03T08:43:54;5.40;99.40
17178;DHT22;8704;52.006;4.374;2023-04-03T08:46:30;5.40;75.60
17178;DHT22;8704;52.006;4.374;2023-04-03T08:49:00;6.60;74.60
17178;DHT22;8704;52.006;4.374;2023-04-03T08:51:29;5.70;99.90
17178;DHT22;8704;52.006;4.374;2023-04-03T08:54:00;5.70;80.20
17178;DHT22;8704;52.006;4.374;2023-04-03T08:56:32;6.10;48.20
17178;DHT22;8704;52.006;4.374;2023-04-03T08:59:06;6.70;55.30
17178;DHT22;8704;52.006;4.374;2023-04-03T09:01:39;5.90;62.40
17178;DHT22;8704;52.006;4.374;2023-04-03T09:04:12;6.00;48.80
17178;DHT22;8704;52.006;4.374;2023-04-03T09:06:43;6.10;74.80
17178;DHT22;8704;52.006;4.374;2023-04-03T09:09:23;6.70;90.10
17178;DHT22;8704;52.006;4.374;2023-04-03T09:12:03;6.20;47.50
17178;DHT22;8704;52.006;4.374;2023-04-03T09:14:39;6.30;1.00
17178;DHT22;8704;52.006;4.374;2023-04-03T09:17:14;6.30;1.00
17178;DHT22;8704;52.006;4.374;2023-04-03T09:19:52;6.40;1.00
17178;DHT22;8704;52.006;4.374;2023-04-03T09:22:24;6.50;1.00
17178;DHT22;8704;52.006;4.374;2023-04-03T09:24:57;6.60;1.00
17178;DHT22;8704;52.006;4.374;2023-04-03T09:27:27;6.70;1.00
17178;DHT22;8704;52.006;4.374;2023-04-03T09:29:56;6.70;1.00
17178;DHT22;8704;52.006;4.374;2023-04-03T09:32:27;6.80;1.00
17178;DHT22;8704;52.006;4.374;2023-04-03T09:34:59;7.50;1.00
17178;DHT22;8704;52.006;4.374;2023-04-03T09:37:47;7.00;1.00
17178;DHT22;8704;52.006;4.374;2023-04-03T09:40:29;7.00;1.00
17178;DHT22;8704;52.006;4.374;2023-04-03T09:43:00;7.00;1.00
17178;DHT22;8704;52.006;4.374;2023-04-03T09:45:29;7.50;1.00
17178;DHT22;8704;52.006;4.374;2023-04-03T09:48:07;7.20;1.00
17178;DHT22;8704;52.006;4.374;2023-04-03T09:50:59;7.30;1.00
17178;DHT22;8704;52.006;4.374;2023-04-03T09:53:33;7.30;1.00
17178;DHT22;8704;52.006;4.374;2023-04-03T09:56:05;7.80;1.00
17178;DHT22;8704;52.006;4.374;2023-04-03T09:58:38;7.50;1.00
17178;DHT22;8704;52.006;4.374;2023-04-03T10:01:28;7.80;1.00
17178;DHT22;8704;52.006;4.374;2023-04-03T10:04:08;8.20;1.00
17178;DHT22;8704;52.006;4.374;2023-04-03T10:06:38;7.70;1.00
17178;DHT22;8704;52.006;4.374;2023-04-03T10:09:21;7.70;1.00
17178;DHT22;8704;52.006;4.374;2023-04-03T10:12:08;7.90;1.00
17178;DHT22;8704;52.006;4.374;2023-04-03T10:14:53;7.90;1.00
17178;DHT22;8704;52.006;4.374;2023-04-03T10:17:37;8.60;1.00
17178;DHT22;8704;52.006;4.374;2023-04-03T10:20:23;8.10;1.00
17178;DHT22;8704;52.006;4.374;2023-04-03T10:23:01;8.50;1.00
17178;DHT22;8704;52.006;4.374;2023-04-03T10:25:35;8.70;1.00
17178;DHT22;8704;52.006;4.374;2023-04-03T10:28:09;8.60;1.00
17178;DHT22;8704;52.006;4.374;2023-04-03T10:30:48;8.70;1.00
17178;DHT22;8704;52.006;4.374;2023-04-03T10:33:34;8.50;1.00
17178;DHT22;8704;52.006;4.374;2023-04-03T10:36:12;8.40;1.00
17178;DHT22;8704;52.006;4.374;2023-04-03T10:38:50;8.70;1.00
17178;DHT22;8704;52.006;4.374;2023-04-03T10:41:26;9.00;1.00
17178;DHT22;8704;52.006;4.374;2023-04-03T10:44:08;8.80;1.00
17178;DHT22;8704;52.006;4.374;2023-04-03T10:46:45;9.00;1.00
17178;DHT22;8704;52.006;4.374;2023-04-03T10:49:25;9.00;1.00
17178;DHT22;8704;52.006;4.374;2023-04-03T10:52:00;9.00;1.00
17178;DHT22;8704;52.006;4.374;2023-04-03T10:54:36;9.00;1.00
17178;DHT22;8704;52.006;4.374;2023-04-03T10:57:09;9.10;1.00
17178;DHT22;8704;52.006;4.374;2023-04-03T10:59:42;9.30;1.00
17178;DHT22;8704;52.006;4.374;2023-04-03T11:02:16;9.30;1.00
17178;DHT22;8704;52.006;4.374;2023-04-03T11:04:49;9.40;1.00
17178;DHT22;8704;52.006;4.374;2023-04-03T11:07:20;9.40;1.00
17178;DHT22;8704;52.006;4.374;2023-04-03T11:09:53;9.70;1.00
17178;DHT22;8704;52.006;4.374;2023-04-03T11:12:31;9.80;1.00
17178;DHT22;8704;52.006;4.374;2023-04-03T11:15:02;9.90;1.00
17178;DHT22;8704;52.006;4.374;2023-04-03T11:17:36;9.80;1.00
17178;DHT22;8704;52.006;4.374;2023-04-03T11:20:14;9.80;1.00
17178;DHT22;8704;52.006;4.374;2023-04-03T11:22:48;10.10;1.00
17178;DHT22;8704;52.006;4.374;2023-04-03T11:25:21;10.00;1.00
17178;DHT22;8704;52.006;4.374;2023-04-03T11:27:54;10.40;1.00
17178;DHT22;8704;52.006;4.374;2023-04-03T11:30:27;10.30;1.00
17178;DHT22;8704;52.006;4.374;2023-04-03T11:35:57;10.80;1.00
17178;DHT22;8704;52.006;4.374;2023-04-03T11:38:30;10.50;1.00
17178;DHT22;8704;52.006;4.374;2023-04-03T11:41:02;10.40;1.00
17178;DHT22;8704;52.006;4.374;2023-04-03T11:43:31;10.40;1.00
17178;DHT22;8704;52.006;4.374;2023-04-03T11:46:01;10.60;1.00
17178;DHT22;8704;52.006;4.374;2023-04-03T11:48:46;10.60;1.00
17178;DHT22;8704;52.006;4.374;2023-04-03T11:51:40;10.70;1.00
17178;DHT22;8704;52.006;4.374;2023-04-03T11:57:43;11.00;1.00
17178;DHT22;8704;52.006;4.374;2023-04-03T12:00:46;11.10;1.00
17178;DHT22;8704;52.006;4.374;2023-04-03T12:13:00;11.60;1.00
17178;DHT22;8704;52.006;4.374;2023-04-03T12:15:50;11.90;1.00
17178;DHT22;8704;52.006;4.374;2023-04-03T12:18:56;12.00;1.00
17178;DHT22;8704;52.006;4.374;2023-04-03T12:22:05;12.00;1.00
17178;DHT22;8704;52.006;4.374;2023-04-03T12:24:36;12.20;1.00
17178;DHT22;8704;52.006;4.374;2023-04-03T12:27:17;12.10;1.00
17178;DHT22;8704;52.006;4.374;2023-04-03T12:29:51;12.00;1.00
17178;DHT22;8704;52.006;4.374;2023-04-03T12:32:37;12.10;1.00
17178;DHT22;8704;52.006;4.374;2023-04-03T12:35:21;12.00;1.00
17178;DHT22;8704;52.006;4.374;2023-04-03T12:41:16;12.20;1.00
17178;DHT22;8704;52.006;4.374;2023-04-03T12:43:59;12.40;1.00
17178;DHT22;8704;52.006;4.374;2023-04-03T12:46:36;12.70;1.00
17178;DHT22;8704;52.006;4.374;2023-04-03T12:49:20;12.40;1.00
17178;DHT22;8704;52.006;4.374;2023-04-03T12:51:50;12.70;1.00
17178;DHT22;8704;52.006;4.374;2023-04-03T12:54:22;12.80;1.00
17178;DHT22;8704;52.006;4.374;2023-04-03T12:57:09;12.90;1.00
17178;DHT22;8704;52.006;4.374;2023-04-03T12:59:37;13.10;1.00
17178;DHT22;8704;52.006;4.374;2023-04-03T13:02:20;13.00;1.00
17178;DHT22;8704;52.006;4.374;2023-04-03T13:04:50;13.00;1.00
17178;DHT22;8704;52.006;4.374;2023-04-03T13:07:21;13.20;1.00
17178;DHT22;8704;52.006;4.374;2023-04-03T13:10:00;13.00;1.00
17178;DHT22;8704;52.006;4.374;2023-04-03T13:12:29;13.00;1.00
17178;DHT22;8704;52.006;4.374;2023-04-03T13:14:59;13.60;1.00
17178;DHT22;8704;52.006;4.374;2023-04-03T13:17:31;13.60;1.00
17178;DHT22;8704;52.006;4.374;2023-04-03T13:20:11;13.70;1.00
17178;DHT22;8704;52.006;4.374;2023-04-03T13:22:45;13.80;1.00
17178;DHT22;8704;52.006;4.374;2023-04-03T13:25:17;14.10;1.00
17178;DHT22;8704;52.006;4.374;2023-04-03T13:27:47;14.00;1.00
17178;DHT22;8704;52.006;4.374;2023-04-03T13:30:20;14.20;1.00
17178;DHT22;8704;52.006;4.374;2023-04-03T13:32:49;14.40;1.00
17178;DHT22;8704;52.006;4.374;2023-04-03T13:35:31;14.40;1.00
17178;DHT22;8704;52.006;4.374;2023-04-03T13:38:04;14.70;1.00
17178;DHT22;8704;52.006;4.374;2023-04-03T13:40:32;14.70;1.00
17178;DHT22;8704;52.006;4.374;2023-04-03T13:43:21;14.90;1.00
17178;DHT22;8704;52.006;4.374;2023-04-03T13:45:58;14.50;1.00
17178;DHT22;8704;52.006;4.374;2023-04-03T13:48:27;15.00;1.00
17178;DHT22;8704;52.006;4.374;2023-04-03T13:51:04;15.00;1.00
17178;DHT22;8704;52.006;4.374;2023-04-03T13:53:40;15.30;1.00
17178;DHT22;8704;52.006;4.374;2023-04-03T13:56:19;15.50;1.00
17178;DHT22;8704;52.006;4.374;2023-04-03T13:58:59;15.60;1.00
17178;DHT22;8704;52.006;4.374;2023-04-03T14:01:36;15.90;1.00
17178;DHT22;8704;52.006;4.374;2023-04-03T14:04:13;15.40;1.00
17178;DHT22;8704;52.006;4.374;2023-04-03T14:06:42;15.80;1.00
17178;DHT22;8704;52.006;4.374;2023-04-03T14:09:10;15.70;1.00
17178;DHT22;8704;52.006;4.374;2023-04-03T14:11:39;16.30;1.00
17178;DHT22;8704;52.006;4.374;2023-04-03T14:14:14;16.60;1.00
17178;DHT22;8704;52.006;4.374;2023-04-03T14:16:48;17.00;1.00
17178;DHT22;8704;52.006;4.374;2023-04-03T14:19:21;17.60;1.00
17178;DHT22;8704;52.006;4.374;2023-04-03T14:21:50;17.80;1.00
17178;DHT22;8704;52.006;4.374;2023-04-03T14:24:20;17.50;1.00
17178;DHT22;8704;52.006;4.374;2023-04-03T14:26:49;16.90;1.00
17178;DHT22;8704;52.006;4.374;2023-04-03T14:29:21;16.80;1.00
17178;DHT22;8704;52.006;4.374;2023-04-03T14:31:49;17.20;1.00
17178;DHT22;8704;52.006;4.374;2023-04-03T14:34:33;17.90;1.00
17178;DHT22;8704;52.006;4.374;2023-04-03T14:37:01;18.40;1.00
17178;DHT22;8704;52.006;4.374;2023-04-03T14:39:29;18.30;1.00
17178;DHT22;8704;52.006;4.374;2023-04-03T14:41:57;18.40;1.00
17178;DHT22;8704;52.006;4.374;2023-04-03T14:44:27;19.00;1.00
17178;DHT22;8704;52.006;4.374;2023-04-03T14:46:55;18.90;1.00
17178;DHT22;8704;52.006;4.374;2023-04-03T14:49:26;19.20;1.00
17178;DHT22;8704;52.006;4.374;2023-04-03T14:51:56;19.30;1.00
17178;DHT22;8704;52.006;4.374;2023-04-03T14:54:25;19.00;1.00
17178;DHT22;8704;52.006;4.374;2023-04-03T14:56:56;19.20;1.00
17178;DHT22;8704;52.006;4.374;2023-04-03T14:59:27;19.20;1.00
17178;DHT22;8704;52.006;4.374;2023-04-03T15:01:56;19.30;1.00
17178;DHT22;8704;52.006;4.374;2023-04-03T15:04:24;19.00;1.00
17178;DHT22;8704;52.006;4.374;2023-04-03T15:06:55;19.10;1.00
17178;DHT22;8704;52.006;4.374;2023-04-03T15:09:25;19.20;1.00
17178;DHT22;8704;52.006;4.374;2023-04-03T15:11:54;19.00;1.00
17178;DHT22;8704;52.006;4.374;2023-04-03T15:14:22;19.50;1.00
17178;DHT22;8704;52.006;4.374;2023-04-03T15:17:05;19.90;1.00
17178;DHT22;8704;52.006;4.374;2023-04-03T15:19:37;19.90;1.00
17178;DHT22;8704;52.006;4.374;2023-04-03T15:22:06;20.30;1.00
17178;DHT22;8704;52.006;4.374;2023-04-03T15:24:35;20.50;1.00
17178;DHT22;8704;52.006;4.374;2023-04-03T15:27:03;20.20;1.00
17178;DHT22;8704;52.006;4.374;2023-04-03T15:29:31;20.30;1.00
17178;DHT22;8704;52.006;4.374;2023-04-03T15:32:00;20.70;1.00
17178;DHT22;8704;52.006;4.374;2023-04-03T15:34:30;20.40;1.00
17178;DHT22;8704;52.006;4.374;2023-04-03T15:36:58;20.70;1.00
17178;DHT22;8704;52.006;4.374;2023-04-03T15:39:26;21.20;1.00
17178;DHT22;8704;52.006;4.374;2023-04-03T15:41:55;20.80;1.00
17178;DHT22;8704;52.006;4.374;2023-04-03T15:44:26;20.40;99.90
17178;DHT22;8704;52.006;4.374;2023-04-03T15:46:54;20.00;99.90
17178;DHT22;8704;52.006;4.374;2023-04-03T15:49:23;18.90;99.90
17178;DHT22;8704;52.006;4.374;2023-04-03T15:51:52;18.90;99.90
17178;DHT22;8704;52.006;4.374;2023-04-03T15:54:20;18.70;99.90
17178;DHT22;8704;52.006;4.374;2023-04-03T15:56:50;18.90;99.90
17178;DHT22;8704;52.006;4.374;2023-04-03T15:59:18;19.30;99.90
17178;DHT22;8704;52.006;4.374;2023-04-03T16:01:47;19.20;99.90
17178;DHT22;8704;52.006;4.374;2023-04-03T16:04:15;19.30;99.90
17178;DHT22;8704;52.006;4.374;2023-04-03T16:06:45;19.30;99.90
17178;DHT22;8704;52.006;4.374;2023-04-03T16:09:14;18.90;99.90
17178;DHT22;8704;52.006;4.374;2023-04-03T16:11:43;19.00;99.90
17178;DHT22;8704;52.006;4.374;2023-04-03T16:14:11;18.50;99.90
17178;DHT22;8704;52.006;4.374;2023-04-03T16:16:40;17.30;99.90
17178;DHT22;8704;52.006;4.374;2023-04-03T16:19:09;17.30;99.90
17178;DHT22;8704;52.006;4.374;2023-04-03T16:21:37;17.70;99.90
17178;DHT22;8704;52.006;4.374;2023-04-03T16:24:05;17.60;99.90
17178;DHT22;8704;52.006;4.374;2023-04-03T16:26:35;17.40;99.90
17178;DHT22;8704;52.006;4.374;2023-04-03T16:29:03;17.60;99.90
17178;DHT22;8704;52.006;4.374;2023-04-03T16:31:32;17.20;99.90
17178;DHT22;8704;52.006;4.374;2023-04-03T16:34:00;17.20;99.90
17178;DHT22;8704;52.006;4.374;2023-04-03T16:36:29;16.70;99.90
17178;DHT22;8704;52.006;4.374;2023-04-03T16:38:57;16.50;99.90
17178;DHT22;8704;52.006;4.374;2023-04-03T16:41:25;16.40;99.90
17178;DHT22;8704;52.006;4.374;2023-04-03T16:43:54;15.90;99.90
17178;DHT22;8704;52.006;4.374;2023-04-03T16:46:22;15.80;99.90
17178;DHT22;8704;52.006;4.374;2023-04-03T16:48:50;15.80;99.90
17178;DHT22;8704;52.006;4.374;2023-04-03T16:51:18;15.60;99.90
17178;DHT22;8704;52.006;4.374;2023-04-03T16:53:46;15.20;99.90
17178;DHT22;8704;52.006;4.374;2023-04-03T16:56:14;15.00;99.90